createdAt,value
2022-09-13T00:00:27.944Z,70.00
2022-09-13T00:03:30.590Z,70.10
2022-09-13T00:06:32.818Z,70.10
2022-09-13T00:09:34.948Z,70.10
2022-09-13T00:12:37.175Z,70.10
2022-09-13T00:15:52.206Z,70.20
2022-09-13T00:18:55.130Z,70.20
2022-09-13T00:21:57.318Z,70.20
2022-09-13T00:24:59.522Z,70.30
2022-09-13T00:28:02.002Z,70.30
2022-09-13T00:31:06.856Z,70.30
2022-09-13T00:34:08.963Z,70.30
2022-09-13T00:37:11.127Z,70.30
2022-09-13T00:40:13.323Z,70.30
2022-09-13T00:43:21.245Z,70.40
2022-09-13T00:46:44.587Z,70.40
2022-09-13T00:49:48.227Z,70.40
2022-09-13T00:52:56.024Z,70.40
2022-09-13T00:56:06.592Z,70.40
2022-09-13T00:59:15.795Z,70.50
2022-09-13T01:02:18.236Z,70.50
2022-09-13T01:05:24.936Z,70.60
2022-09-13T01:08:29.493Z,70.60
2022-09-13T01:12:00.763Z,70.60
2022-09-13T01:15:05.791Z,70.60
2022-09-13T01:18:09.258Z,70.60
2022-09-13T01:21:30.302Z,70.70
2022-09-13T01:24:54.154Z,70.70
2022-09-13T01:28:05.231Z,70.60
2022-09-13T01:31:38.180Z,70.70
2022-09-13T01:35:11.565Z,70.70
2022-09-13T01:38:16.763Z,70.70
2022-09-13T01:41:42.932Z,70.70
2022-09-13T01:44:54.395Z,70.70
2022-09-13T01:48:03.710Z,70.70
2022-09-13T01:51:18.770Z,70.70
2022-09-13T01:54:43.746Z,70.70
2022-09-13T01:58:01.819Z,70.70
2022-09-13T02:01:08.471Z,70.60
2022-09-13T02:04:18.000Z,70.60
2022-09-13T02:07:26.493Z,70.70
2022-09-13T02:10:34.348Z,70.70
2022-09-13T02:13:46.595Z,70.60
2022-09-13T02:17:04.205Z,70.70
2022-09-13T02:20:16.570Z,70.60
2022-09-13T02:23:32.559Z,70.60
2022-09-13T02:26:37.775Z,70.70
2022-09-13T02:29:42.865Z,70.70
2022-09-13T02:33:24.165Z,70.60
2022-09-13T02:36:38.477Z,70.70
2022-09-13T02:39:55.535Z,70.60
2022-09-13T02:43:33.161Z,70.70
2022-09-13T02:46:44.290Z,70.60
2022-09-13T02:49:58.479Z,70.60
2022-09-13T02:53:16.238Z,70.70
2022-09-13T02:56:35.373Z,70.80
2022-09-13T02:59:37.574Z,70.70
2022-09-13T03:02:42.612Z,70.70
2022-09-13T03:05:45.075Z,70.70
2022-09-13T03:08:47.296Z,70.80
2022-09-13T03:12:09.316Z,70.80
2022-09-13T03:15:35.478Z,70.80
2022-09-13T03:19:16.996Z,70.80
2022-09-13T03:22:37.839Z,70.80
2022-09-13T03:25:45.957Z,70.80
2022-09-13T03:29:15.274Z,70.80
2022-09-13T03:32:35.291Z,71.50
2022-09-13T03:35:45.726Z,70.80
2022-09-13T03:38:59.299Z,70.80
2022-09-13T03:42:08.470Z,70.80
2022-09-13T03:45:13.251Z,70.90
2022-09-13T03:48:16.852Z,70.80
2022-09-13T03:51:19.735Z,70.90
2022-09-13T03:54:28.723Z,70.90
2022-09-13T03:57:30.901Z,70.80
2022-09-13T04:00:33.916Z,70.80
2022-09-13T04:03:37.195Z,70.80
2022-09-13T04:06:39.414Z,70.90
2022-09-13T04:09:41.674Z,70.90
2022-09-13T04:12:43.824Z,70.80
2022-09-13T04:15:45.914Z,70.90
2022-09-13T04:18:48.112Z,70.90
2022-09-13T04:21:51.817Z,71.00
2022-09-13T04:24:54.050Z,71.00
2022-09-13T04:27:58.266Z,70.90
2022-09-13T04:31:00.416Z,70.80
2022-09-13T04:45:40.757Z,70.30
2022-09-13T04:48:42.958Z,70.10
2022-09-13T04:51:45.121Z,69.70
2022-09-13T04:54:48.266Z,69.70
2022-09-13T04:57:54.421Z,69.80
2022-09-13T05:01:04.528Z,69.90
2022-09-13T05:04:07.652Z,70.00
2022-09-13T05:07:09.823Z,70.10
2022-09-13T05:10:15.162Z,70.20
2022-09-13T05:13:19.696Z,70.40
2022-09-13T05:16:23.270Z,70.40
2022-09-13T05:19:25.535Z,70.50
2022-09-13T05:22:27.647Z,70.50
2022-09-13T05:25:30.344Z,70.60
2022-09-13T05:28:35.256Z,70.70
2022-09-13T05:31:40.795Z,70.70
2022-09-13T05:34:43.053Z,70.80
2022-09-13T05:37:45.284Z,70.80
2022-09-13T05:40:47.793Z,70.80
2022-09-13T05:43:50.085Z,70.80
2022-09-13T05:46:52.223Z,70.90
2022-09-13T05:50:12.017Z,71.00
2022-09-13T05:53:16.705Z,71.10
2022-09-13T05:56:27.333Z,71.20
2022-09-13T05:59:29.755Z,71.20
2022-09-13T06:02:32.564Z,71.40
2022-09-13T06:05:34.794Z,71.30
2022-09-13T06:08:37.349Z,71.40
2022-09-13T06:11:39.774Z,71.30
2022-09-13T06:14:41.909Z,71.40
2022-09-13T06:17:44.008Z,71.40
2022-09-13T06:20:46.195Z,71.50
2022-09-13T06:23:53.468Z,72.30
2022-09-13T06:26:55.604Z,71.60
2022-09-13T06:29:57.740Z,71.70
2022-09-13T06:32:59.965Z,71.80
2022-09-13T06:36:03.759Z,71.80
2022-09-13T06:39:06.729Z,71.90
2022-09-13T06:42:08.831Z,71.80
2022-09-13T06:45:15.118Z,71.80
2022-09-13T06:48:17.947Z,71.80
2022-09-13T06:51:22.646Z,71.80
2022-09-13T06:54:24.799Z,71.80
2022-09-13T06:57:29.880Z,72.00
2022-09-13T07:00:32.168Z,72.00
2022-09-13T07:03:34.424Z,72.00
2022-09-13T07:06:39.105Z,72.20
2022-09-13T07:09:42.782Z,72.30
2022-09-13T07:12:44.900Z,72.30
2022-09-13T07:15:47.274Z,72.50
2022-09-13T07:18:56.939Z,72.40
2022-09-13T07:29:28.881Z,72.40
2022-09-13T07:32:33.052Z,72.40
2022-09-13T07:39:17.215Z,72.40
2022-09-13T07:42:22.447Z,72.40
2022-09-13T07:45:24.568Z,72.40
2022-09-13T07:48:33.242Z,72.40
2022-09-13T07:51:39.741Z,72.50
2022-09-13T07:54:42.131Z,73.20
2022-09-13T07:57:44.303Z,72.60
2022-09-13T08:00:46.673Z,72.70
2022-09-13T08:03:56.988Z,72.60
2022-09-13T08:06:59.249Z,72.70
2022-09-13T08:10:01.739Z,72.80
2022-09-13T08:13:03.944Z,72.80
2022-09-13T08:16:07.066Z,72.90
2022-09-13T08:19:13.639Z,72.90
2022-09-13T08:22:15.725Z,72.90
2022-09-13T08:25:17.881Z,73.00
2022-09-13T08:28:26.855Z,72.90
2022-09-13T08:31:30.435Z,73.00
2022-09-13T08:34:32.561Z,73.00
2022-09-13T08:37:35.254Z,73.00
2022-09-13T08:40:43.782Z,73.00
2022-09-13T08:44:10.213Z,73.00
2022-09-13T08:47:30.178Z,73.20
2022-09-13T08:50:36.367Z,73.10
2022-09-13T08:53:48.860Z,73.10
2022-09-13T08:57:17.294Z,73.10
2022-09-13T09:00:23.612Z,73.00
2022-09-13T09:04:02.913Z,73.10
2022-09-13T09:07:12.087Z,73.00
2022-09-13T09:10:24.507Z,73.00
2022-09-13T09:13:37.544Z,72.90
2022-09-13T09:16:53.296Z,73.00
2022-09-13T09:20:23.960Z,73.00
2022-09-13T09:23:46.012Z,73.00
2022-09-13T09:26:48.170Z,73.00
2022-09-13T09:29:54.365Z,72.90
2022-09-13T09:33:08.693Z,72.80
2022-09-13T09:36:20.001Z,72.90
2022-09-13T09:39:25.485Z,72.90
2022-09-13T09:42:30.428Z,72.90
2022-09-13T09:45:36.004Z,72.90
2022-09-13T09:48:48.411Z,72.90
2022-09-13T09:51:50.702Z,72.80
2022-09-13T09:54:52.816Z,72.80
2022-09-13T09:57:59.241Z,72.70
2022-09-13T10:01:02.026Z,72.70
2022-09-13T10:04:08.765Z,72.70
2022-09-13T10:07:31.199Z,72.60
2022-09-13T10:10:34.811Z,72.50
2022-09-13T10:13:38.444Z,72.60
2022-09-13T10:16:41.325Z,72.60
2022-09-13T10:20:17.237Z,72.70
2022-09-13T10:23:21.581Z,72.70
2022-09-13T10:26:25.843Z,72.70
2022-09-13T10:29:29.160Z,72.60
2022-09-13T10:32:31.642Z,72.60
2022-09-13T10:35:34.189Z,72.50
2022-09-13T10:38:41.860Z,72.50
2022-09-13T10:41:55.423Z,72.50
2022-09-13T10:45:06.099Z,72.50
2022-09-13T10:48:16.974Z,72.30
2022-09-13T10:51:26.194Z,72.30
2022-09-13T10:54:28.819Z,72.30
2022-09-13T10:57:37.724Z,72.30
2022-09-13T11:00:45.514Z,72.30
2022-09-13T11:04:35.795Z,72.30
2022-09-13T11:07:44.055Z,72.20
2022-09-13T11:11:08.782Z,72.20
2022-09-13T11:14:22.794Z,72.20
2022-09-13T11:17:39.653Z,72.10
2022-09-13T11:21:22.660Z,72.10
2022-09-13T11:24:30.869Z,72.00
2022-09-13T11:27:51.700Z,72.00
2022-09-13T11:31:33.443Z,71.90
2022-09-13T11:34:41.556Z,71.90
2022-09-13T11:38:11.231Z,71.80
2022-09-13T11:41:32.456Z,71.80
2022-09-13T11:44:59.195Z,71.80
2022-09-13T11:48:35.742Z,71.80
2022-09-13T11:51:43.841Z,71.90
2022-09-13T11:55:18.373Z,71.80
2022-09-13T11:58:28.577Z,71.80
2022-09-13T12:01:37.154Z,71.70
2022-09-13T12:05:20.397Z,71.90
2022-09-13T12:08:24.815Z,71.70
2022-09-13T12:11:41.948Z,71.70
2022-09-13T12:15:14.199Z,71.70
2022-09-13T12:18:31.082Z,71.70
2022-09-13T12:21:39.138Z,71.60
2022-09-13T12:24:48.369Z,71.50
2022-09-13T12:28:18.586Z,71.60
2022-09-13T12:31:24.348Z,71.50
2022-09-13T12:34:50.685Z,71.40
2022-09-13T12:38:31.671Z,71.30
2022-09-13T12:41:52.719Z,71.20
2022-09-13T12:45:00.726Z,71.30
2022-09-13T12:48:11.599Z,71.10
2022-09-13T12:51:32.729Z,71.10
2022-09-13T12:55:45.961Z,71.20
2022-09-13T12:59:12.037Z,71.20
2022-09-13T13:02:27.857Z,71.20
2022-09-13T13:05:48.939Z,71.10
2022-09-13T13:08:54.628Z,71.10
2022-09-13T13:11:58.651Z,71.00
2022-09-13T13:15:18.187Z,71.00
2022-09-13T13:18:45.096Z,71.00
2022-09-13T13:21:47.314Z,71.10
2022-09-13T13:24:49.577Z,71.00
2022-09-13T13:27:55.219Z,71.00
2022-09-13T13:30:59.160Z,71.00
2022-09-13T13:34:08.507Z,70.90
2022-09-13T13:37:10.616Z,71.00
2022-09-13T13:40:25.947Z,70.90
2022-09-13T13:43:34.270Z,70.90
2022-09-13T13:46:36.521Z,70.80
2022-09-13T13:49:41.554Z,70.90
2022-09-13T13:53:06.532Z,70.80
2022-09-13T13:56:23.366Z,70.90
2022-09-13T13:59:33.109Z,70.90
2022-09-13T14:02:51.118Z,70.90
2022-09-13T14:06:17.678Z,71.00
2022-09-13T14:09:49.726Z,71.00
2022-09-13T14:12:58.204Z,71.00
2022-09-13T14:16:09.251Z,71.60
2022-09-13T14:19:39.763Z,70.90
2022-09-13T14:22:42.487Z,71.10
2022-09-13T14:25:45.205Z,71.00
2022-09-13T14:28:47.651Z,71.00
2022-09-13T14:31:52.720Z,71.00
2022-09-13T14:35:02.112Z,71.10
2022-09-13T14:38:18.838Z,70.90
2022-09-13T14:41:22.867Z,71.00
2022-09-13T14:44:29.022Z,71.00
2022-09-13T14:47:55.648Z,70.80
2022-09-13T14:51:02.703Z,70.80
2022-09-13T14:54:17.133Z,70.80
2022-09-13T14:57:34.271Z,71.50
2022-09-13T15:01:02.729Z,70.80
2022-09-13T15:04:07.433Z,70.80
2022-09-13T15:07:20.982Z,70.80
2022-09-13T15:10:33.449Z,70.70
2022-09-13T15:13:37.437Z,70.50
2022-09-13T15:16:53.699Z,70.40
2022-09-13T15:20:06.097Z,70.50
2022-09-13T15:23:17.490Z,70.40
2022-09-13T15:26:25.755Z,70.30
2022-09-13T15:29:28.378Z,70.20
2022-09-13T15:32:40.425Z,70.10
2022-09-13T15:35:45.097Z,69.90
2022-09-13T15:39:08.465Z,69.80
2022-09-13T15:42:10.570Z,69.80
2022-09-13T15:45:13.098Z,69.60
2022-09-13T15:48:46.356Z,69.60
2022-09-13T15:51:54.503Z,69.70
2022-09-13T15:54:56.587Z,69.60
2022-09-13T15:57:58.714Z,69.60
2022-09-13T16:01:00.997Z,69.50
2022-09-13T16:04:05.113Z,69.60
2022-09-13T16:07:08.876Z,69.60
2022-09-13T16:10:17.055Z,69.60
2022-09-13T16:13:19.204Z,69.60
2022-09-13T16:16:21.482Z,69.70
2022-09-13T16:19:23.761Z,69.50
2022-09-13T16:22:25.909Z,69.50
2022-09-13T16:25:28.050Z,69.60
2022-09-13T16:28:30.127Z,69.50
2022-09-13T16:31:32.606Z,69.50
2022-09-13T16:34:34.922Z,69.60
2022-09-13T16:37:37.787Z,69.60
2022-09-13T16:40:41.407Z,69.60
2022-09-13T16:43:43.559Z,69.60
2022-09-13T16:46:46.039Z,69.70
2022-09-13T16:49:48.225Z,69.70
2022-09-13T16:52:50.387Z,69.60
2022-09-13T16:55:52.529Z,69.60
2022-09-13T16:58:54.733Z,69.70
2022-09-13T17:01:57.872Z,69.80
2022-09-13T17:05:00.205Z,69.70
2022-09-13T17:08:02.612Z,69.80
2022-09-13T17:11:13.201Z,69.80
2022-09-13T17:14:17.881Z,69.80
2022-09-13T17:17:20.385Z,69.90
2022-09-13T17:20:22.741Z,69.90
2022-09-13T17:23:25.575Z,69.90
2022-09-13T17:26:28.466Z,69.90
2022-09-13T17:29:32.658Z,69.90
2022-09-13T17:32:35.648Z,69.90
2022-09-13T17:35:37.876Z,70.00
2022-09-13T17:38:40.748Z,70.00
2022-09-13T17:41:42.859Z,70.00
2022-09-13T17:44:44.906Z,70.00
2022-09-13T17:47:47.595Z,70.00
2022-09-13T17:50:49.946Z,70.00
2022-09-13T17:53:54.518Z,70.00
2022-09-13T17:56:56.683Z,70.00
2022-09-13T17:59:59.034Z,70.00
2022-09-13T18:03:01.717Z,70.00
2022-09-13T18:06:05.677Z,70.10
2022-09-13T18:09:08.664Z,70.20
2022-09-13T18:12:12.163Z,70.20
2022-09-13T18:15:14.471Z,70.20
2022-09-13T18:18:16.844Z,70.20
2022-09-13T18:21:20.811Z,70.20
2022-09-13T18:24:23.005Z,70.30
2022-09-13T18:27:25.192Z,70.30
2022-09-13T18:30:27.405Z,70.40
2022-09-13T18:33:30.119Z,70.30
2022-09-13T18:36:33.657Z,70.40
2022-09-13T18:39:36.441Z,70.40
2022-09-13T18:42:40.892Z,70.40
2022-09-13T18:45:43.317Z,70.40
2022-09-13T18:48:48.436Z,70.50
2022-09-13T18:51:50.600Z,70.50
2022-09-13T18:54:52.737Z,70.50
2022-09-13T18:57:55.159Z,70.50
2022-09-13T19:01:04.408Z,70.50
2022-09-13T19:04:20.435Z,70.50
2022-09-13T19:07:23.420Z,70.50
2022-09-13T19:10:25.831Z,70.50
2022-09-13T19:13:31.647Z,70.60
2022-09-13T19:16:34.053Z,70.60
2022-09-13T19:19:36.178Z,70.70
2022-09-13T19:22:38.825Z,70.70
2022-09-13T19:25:41.779Z,70.80
2022-09-13T19:28:47.973Z,70.80
2022-09-13T19:31:52.224Z,71.60
2022-09-13T19:34:54.438Z,70.90
2022-09-13T19:37:56.605Z,70.90
2022-09-13T19:41:00.504Z,71.00
2022-09-13T19:44:03.789Z,71.10
2022-09-13T19:47:53.155Z,71.10
2022-09-13T19:50:29.623Z,71.10
2022-09-13T19:53:53.441Z,71.10
2022-09-13T19:56:55.675Z,71.20
2022-09-13T19:59:57.923Z,71.20
2022-09-13T20:03:00.030Z,71.30
2022-09-13T20:06:04.078Z,71.30
2022-09-13T20:09:06.767Z,71.30
2022-09-13T20:12:10.155Z,71.30
2022-09-13T20:15:12.356Z,72.10
2022-09-13T20:18:15.631Z,71.30
2022-09-13T20:21:18.417Z,71.40
2022-09-13T20:24:20.610Z,71.50
2022-09-13T20:27:22.799Z,71.50
2022-09-13T20:30:24.994Z,71.50
2022-09-13T20:33:27.561Z,71.50
2022-09-13T20:36:32.395Z,71.60
2022-09-13T20:39:34.522Z,72.40
2022-09-13T20:42:37.395Z,71.60
2022-09-13T20:45:39.590Z,71.60
2022-09-13T20:48:43.794Z,71.60
2022-09-13T20:51:47.080Z,71.60
2022-09-13T20:54:49.772Z,71.70
2022-09-13T20:57:51.887Z,71.70
2022-09-13T21:00:54.016Z,71.70
2022-09-13T21:03:56.718Z,71.70
2022-09-13T21:07:17.527Z,71.70
2022-09-13T21:10:19.959Z,71.80
2022-09-13T21:13:22.279Z,71.80
2022-09-13T21:16:26.566Z,71.80
2022-09-13T21:19:29.474Z,71.90
2022-09-13T21:22:31.977Z,71.90
2022-09-13T21:25:36.767Z,71.90
2022-09-13T21:28:40.527Z,71.90
2022-09-13T21:31:42.895Z,72.00
2022-09-13T21:34:45.620Z,72.00
2022-09-13T21:37:47.998Z,72.00
2022-09-13T21:40:55.953Z,72.00
2022-09-13T21:43:58.226Z,72.00
2022-09-13T21:47:00.351Z,72.10
2022-09-13T21:50:02.835Z,72.10
2022-09-13T21:53:04.990Z,72.10
2022-09-13T21:56:10.910Z,72.10
2022-09-13T21:59:15.433Z,72.20
2022-09-13T22:02:17.733Z,72.30
2022-09-13T22:05:19.863Z,72.30
2022-09-13T22:08:22.056Z,72.30
2022-09-13T22:11:26.895Z,72.30
2022-09-13T22:14:29.069Z,72.40
2022-09-13T22:17:31.242Z,72.40
2022-09-13T22:20:36.018Z,72.50
2022-09-13T22:23:38.577Z,72.50
2022-09-13T22:26:41.263Z,72.60
2022-09-13T22:29:43.530Z,72.60
2022-09-13T22:32:45.798Z,72.70
2022-09-13T22:35:58.592Z,72.70
2022-09-13T22:39:00.670Z,72.90
2022-09-13T22:42:02.811Z,72.80
2022-09-13T22:45:05.556Z,72.80
2022-09-13T22:48:12.315Z,72.90
2022-09-13T22:51:16.359Z,73.00
2022-09-13T22:54:19.496Z,72.90
2022-09-13T22:57:21.691Z,73.00
2022-09-13T23:00:23.861Z,73.00
2022-09-13T23:03:26.008Z,73.10
2022-09-13T23:06:29.738Z,73.10
2022-09-13T23:09:31.914Z,73.20
2022-09-13T23:12:34.094Z,73.10
2022-09-13T23:15:36.320Z,73.20
2022-09-13T23:18:38.471Z,73.20
2022-09-13T23:21:42.040Z,73.20
2022-09-13T23:24:44.166Z,73.30
2022-09-13T23:27:46.255Z,73.30
2022-09-13T23:30:48.408Z,73.40
2022-09-13T23:33:54.231Z,73.30
2022-09-13T23:36:56.442Z,73.40
2022-09-13T23:39:59.635Z,73.50
2022-09-13T23:43:02.302Z,73.40
2022-09-13T23:46:04.994Z,73.50
2022-09-13T23:49:07.140Z,73.50
2022-09-13T23:52:09.321Z,73.50
2022-09-13T23:55:14.294Z,73.50
2022-09-13T23:58:16.450Z,73.60
